Weather at Quinn Field

Public forecast

Using degrees Fahrenheit for public forecast. Weather courtesy of forecast.io.

Closest aviation weather report (METAR) to Quinn Field

Closest report is Kennett Memorial Airport, 18.8 nm (34.8 km) NE. Retrieved 2021/07/24 23:15 UTC (13 minutes ago):

KTKX 242315Z AUTO 19005KT 10SM CLR 34/25 A2995 RMK AO2

Closest aviation forecast (TAF) to Quinn Field

Closest forecast is Jonesboro Municipal Airport, 19.3 nm (35.7 km) SW. Retrieved 2021/07/24 18:36 UTC (5 hours ago):

TAF KJBR 241735Z 2418/2518 21006KT P6SM SCT050 FM250100 20003KT P6SM FEW250 FM251600 23005KT P6SM FEW040